sensor_id;sensor_type;location;lat;lon;timestamp;P1;durP1;ratioP1;P2;durP2;ratioP2
3683;SDS011;1858;48.716;9.648;2023-01-08T00:01:43;5.80;;;3.33;;
3683;SDS011;1858;48.716;9.648;2023-01-08T00:04:11;6.07;;;4.17;;
3683;SDS011;1858;48.716;9.648;2023-01-08T00:06:39;5.23;;;2.50;;
3683;SDS011;1858;48.716;9.648;2023-01-08T00:09:09;4.17;;;2.83;;
3683;SDS011;1858;48.716;9.648;2023-01-08T00:11:38;6.40;;;2.93;;
3683;SDS011;1858;48.716;9.648;2023-01-08T00:14:06;5.80;;;3.53;;
3683;SDS011;1858;48.716;9.648;2023-01-08T00:16:35;7.00;;;2.87;;
3683;SDS011;1858;48.716;9.648;2023-01-08T00:19:03;4.77;;;2.67;;
3683;SDS011;1858;48.716;9.648;2023-01-08T00:21:31;6.30;;;3.07;;
3683;SDS011;1858;48.716;9.648;2023-01-08T00:24:00;5.30;;;2.60;;
3683;SDS011;1858;48.716;9.648;2023-01-08T00:26:28;4.73;;;3.50;;
3683;SDS011;1858;48.716;9.648;2023-01-08T00:28:56;6.40;;;3.27;;
3683;SDS011;1858;48.716;9.648;2023-01-08T00:31:25;5.33;;;2.37;;
3683;SDS011;1858;48.716;9.648;2023-01-08T00:33:53;5.33;;;2.53;;
3683;SDS011;1858;48.716;9.648;2023-01-08T00:36:22;7.03;;;2.80;;
3683;SDS011;1858;48.716;9.648;2023-01-08T00:38:50;4.07;;;3.40;;
3683;SDS011;1858;48.716;9.648;2023-01-08T00:41:18;8.83;;;2.70;;
3683;SDS011;1858;48.716;9.648;2023-01-08T00:43:47;6.00;;;2.83;;
3683;SDS011;1858;48.716;9.648;2023-01-08T00:46:15;10.60;;;3.53;;
3683;SDS011;1858;48.716;9.648;2023-01-08T00:48:43;4.07;;;2.90;;
3683;SDS011;1858;48.716;9.648;2023-01-08T00:51:12;5.13;;;2.40;;
3683;SDS011;1858;48.716;9.648;2023-01-08T00:53:41;4.13;;;1.90;;
3683;SDS011;1858;48.716;9.648;2023-01-08T00:56:09;5.90;;;2.63;;
3683;SDS011;1858;48.716;9.648;2023-01-08T00:58:38;5.93;;;3.40;;
3683;SDS011;1858;48.716;9.648;2023-01-08T01:01:10;3.90;;;2.20;;
3683;SDS011;1858;48.716;9.648;2023-01-08T01:03:40;5.00;;;2.60;;
3683;SDS011;1858;48.716;9.648;2023-01-08T01:06:09;4.37;;;3.00;;
3683;SDS011;1858;48.716;9.648;2023-01-08T01:08:39;3.73;;;2.40;;
3683;SDS011;1858;48.716;9.648;2023-01-08T01:11:17;3.00;;;2.13;;
3683;SDS011;1858;48.716;9.648;2023-01-08T01:13:41;4.03;;;2.80;;
3683;SDS011;1858;48.716;9.648;2023-01-08T01:16:09;4.97;;;2.57;;
3683;SDS011;1858;48.716;9.648;2023-01-08T01:18:38;2.93;;;2.30;;
3683;SDS011;1858;48.716;9.648;2023-01-08T01:21:16;5.90;;;2.57;;
3683;SDS011;1858;48.716;9.648;2023-01-08T01:23:39;4.03;;;2.93;;
3683;SDS011;1858;48.716;9.648;2023-01-08T01:26:17;3.27;;;2.63;;
3683;SDS011;1858;48.716;9.648;2023-01-08T01:28:48;3.40;;;2.20;;
3683;SDS011;1858;48.716;9.648;2023-01-08T01:31:17;3.27;;;1.80;;
3683;SDS011;1858;48.716;9.648;2023-01-08T01:33:46;2.90;;;1.80;;
3683;SDS011;1858;48.716;9.648;2023-01-08T01:36:16;4.37;;;2.43;;
3683;SDS011;1858;48.716;9.648;2023-01-08T01:38:47;4.97;;;3.00;;
3683;SDS011;1858;48.716;9.648;2023-01-08T01:41:23;4.87;;;2.43;;
3683;SDS011;1858;48.716;9.648;2023-01-08T01:50:02;4.80;;;1.80;;
3683;SDS011;1858;48.716;9.648;2023-01-08T01:52:32;3.90;;;2.20;;
3683;SDS011;1858;48.716;9.648;2023-01-08T01:55:03;3.33;;;2.93;;
3683;SDS011;1858;48.716;9.648;2023-01-08T01:57:32;6.10;;;2.80;;
3683;SDS011;1858;48.716;9.648;2023-01-08T02:00:00;5.50;;;3.60;;
3683;SDS011;1858;48.716;9.648;2023-01-08T02:02:31;4.67;;;3.20;;
3683;SDS011;1858;48.716;9.648;2023-01-08T02:05:00;4.30;;;1.87;;
3683;SDS011;1858;48.716;9.648;2023-01-08T02:07:41;5.20;;;2.40;;
3683;SDS011;1858;48.716;9.648;2023-01-08T02:10:26;5.90;;;2.60;;
3683;SDS011;1858;48.716;9.648;2023-01-08T02:12:58;5.43;;;2.77;;
3683;SDS011;1858;48.716;9.648;2023-01-08T02:15:33;3.47;;;1.80;;
3683;SDS011;1858;48.716;9.648;2023-01-08T02:20:39;6.77;;;2.60;;
3683;SDS011;1858;48.716;9.648;2023-01-08T02:26:33;3.03;;;2.40;;
3683;SDS011;1858;48.716;9.648;2023-01-08T02:28:43;2.43;;;1.37;;
3683;SDS011;1858;48.716;9.648;2023-01-08T02:31:29;5.03;;;2.63;;
3683;SDS011;1858;48.716;9.648;2023-01-08T02:33:58;3.70;;;1.47;;
3683;SDS011;1858;48.716;9.648;2023-01-08T02:36:34;4.23;;;2.10;;
3683;SDS011;1858;48.716;9.648;2023-01-08T02:47:31;4.60;;;2.23;;
3683;SDS011;1858;48.716;9.648;2023-01-08T02:50:04;3.50;;;2.00;;
3683;SDS011;1858;48.716;9.648;2023-01-08T02:52:35;2.90;;;1.63;;
3683;SDS011;1858;48.716;9.648;2023-01-08T02:55:06;4.83;;;2.23;;
3683;SDS011;1858;48.716;9.648;2023-01-08T02:57:36;3.37;;;2.30;;
3683;SDS011;1858;48.716;9.648;2023-01-08T03:00:05;4.80;;;2.27;;
3683;SDS011;1858;48.716;9.648;2023-01-08T03:02:35;3.30;;;2.20;;
3683;SDS011;1858;48.716;9.648;2023-01-08T03:05:09;3.33;;;1.90;;
3683;SDS011;1858;48.716;9.648;2023-01-08T03:07:37;3.30;;;2.27;;
3683;SDS011;1858;48.716;9.648;2023-01-08T03:10:06;5.27;;;2.77;;
3683;SDS011;1858;48.716;9.648;2023-01-08T03:15:19;6.43;;;2.47;;
3683;SDS011;1858;48.716;9.648;2023-01-08T03:17:49;3.63;;;1.90;;
3683;SDS011;1858;48.716;9.648;2023-01-08T03:20:20;4.53;;;2.17;;
3683;SDS011;1858;48.716;9.648;2023-01-08T03:22:50;4.50;;;2.10;;
3683;SDS011;1858;48.716;9.648;2023-01-08T03:25:22;3.40;;;1.97;;
3683;SDS011;1858;48.716;9.648;2023-01-08T03:27:54;3.50;;;1.67;;
3683;SDS011;1858;48.716;9.648;2023-01-08T03:30:24;4.70;;;2.97;;
3683;SDS011;1858;48.716;9.648;2023-01-08T03:32:53;3.00;;;1.90;;
3683;SDS011;1858;48.716;9.648;2023-01-08T03:35:25;3.20;;;2.03;;
3683;SDS011;1858;48.716;9.648;2023-01-08T03:37:59;4.50;;;2.10;;
3683;SDS011;1858;48.716;9.648;2023-01-08T03:40:28;2.73;;;1.80;;
3683;SDS011;1858;48.716;9.648;2023-01-08T03:42:57;2.33;;;1.60;;
3683;SDS011;1858;48.716;9.648;2023-01-08T03:45:26;4.77;;;2.50;;
3683;SDS011;1858;48.716;9.648;2023-01-08T03:47:56;2.07;;;1.53;;
3683;SDS011;1858;48.716;9.648;2023-01-08T03:50:26;3.07;;;1.40;;
3683;SDS011;1858;48.716;9.648;2023-01-08T03:52:56;4.77;;;2.33;;
3683;SDS011;1858;48.716;9.648;2023-01-08T03:55:25;2.43;;;1.63;;
3683;SDS011;1858;48.716;9.648;2023-01-08T03:57:54;3.80;;;2.37;;
3683;SDS011;1858;48.716;9.648;2023-01-08T04:00:22;4.33;;;2.27;;
3683;SDS011;1858;48.716;9.648;2023-01-08T04:02:51;5.50;;;2.47;;
3683;SDS011;1858;48.716;9.648;2023-01-08T04:05:19;4.70;;;3.03;;
3683;SDS011;1858;48.716;9.648;2023-01-08T04:07:47;2.70;;;1.80;;
3683;SDS011;1858;48.716;9.648;2023-01-08T04:10:16;3.50;;;1.90;;
3683;SDS011;1858;48.716;9.648;2023-01-08T04:12:44;3.10;;;1.40;;
3683;SDS011;1858;48.716;9.648;2023-01-08T04:15:12;2.73;;;1.43;;
3683;SDS011;1858;48.716;9.648;2023-01-08T04:17:41;3.63;;;1.67;;
3683;SDS011;1858;48.716;9.648;2023-01-08T04:20:09;6.83;;;2.60;;
3683;SDS011;1858;48.716;9.648;2023-01-08T04:22:38;3.83;;;1.90;;
3683;SDS011;1858;48.716;9.648;2023-01-08T04:25:07;3.00;;;1.70;;
3683;SDS011;1858;48.716;9.648;2023-01-08T04:27:35;3.20;;;2.53;;
3683;SDS011;1858;48.716;9.648;2023-01-08T04:30:04;3.30;;;2.70;;
3683;SDS011;1858;48.716;9.648;2023-01-08T04:32:33;12.40;;;2.37;;
3683;SDS011;1858;48.716;9.648;2023-01-08T04:35:01;6.67;;;3.33;;
3683;SDS011;1858;48.716;9.648;2023-01-08T04:37:30;3.70;;;2.07;;
3683;SDS011;1858;48.716;9.648;2023-01-08T04:39:58;3.90;;;2.20;;
3683;SDS011;1858;48.716;9.648;2023-01-08T04:42:27;2.90;;;1.67;;
3683;SDS011;1858;48.716;9.648;2023-01-08T04:44:55;6.90;;;2.63;;
3683;SDS011;1858;48.716;9.648;2023-01-08T04:47:23;4.80;;;3.57;;
3683;SDS011;1858;48.716;9.648;2023-01-08T04:49:52;3.50;;;2.87;;
3683;SDS011;1858;48.716;9.648;2023-01-08T04:52:20;1.73;;;1.13;;
3683;SDS011;1858;48.716;9.648;2023-01-08T04:54:48;5.40;;;2.67;;
3683;SDS011;1858;48.716;9.648;2023-01-08T04:57:17;3.00;;;2.17;;
3683;SDS011;1858;48.716;9.648;2023-01-08T04:59:46;7.83;;;2.83;;
3683;SDS011;1858;48.716;9.648;2023-01-08T05:02:14;3.63;;;3.03;;
3683;SDS011;1858;48.716;9.648;2023-01-08T05:04:42;3.13;;;2.37;;
3683;SDS011;1858;48.716;9.648;2023-01-08T05:07:11;6.67;;;3.63;;
3683;SDS011;1858;48.716;9.648;2023-01-08T05:09:39;4.93;;;2.97;;
3683;SDS011;1858;48.716;9.648;2023-01-08T05:12:08;3.10;;;2.30;;
3683;SDS011;1858;48.716;9.648;2023-01-08T05:14:36;3.93;;;2.17;;
3683;SDS011;1858;48.716;9.648;2023-01-08T05:17:04;3.77;;;2.43;;
3683;SDS011;1858;48.716;9.648;2023-01-08T05:19:33;5.60;;;3.33;;
3683;SDS011;1858;48.716;9.648;2023-01-08T05:22:01;4.23;;;2.60;;
3683;SDS011;1858;48.716;9.648;2023-01-08T05:24:29;6.60;;;3.87;;
3683;SDS011;1858;48.716;9.648;2023-01-08T05:26:58;8.00;;;4.47;;
3683;SDS011;1858;48.716;9.648;2023-01-08T05:29:26;8.70;;;3.93;;
3683;SDS011;1858;48.716;9.648;2023-01-08T05:31:54;6.10;;;4.00;;
3683;SDS011;1858;48.716;9.648;2023-01-08T05:34:23;3.70;;;2.50;;
3683;SDS011;1858;48.716;9.648;2023-01-08T05:36:51;6.13;;;3.07;;
3683;SDS011;1858;48.716;9.648;2023-01-08T05:39:20;10.93;;;5.20;;
3683;SDS011;1858;48.716;9.648;2023-01-08T05:41:48;5.37;;;3.00;;
3683;SDS011;1858;48.716;9.648;2023-01-08T05:44:16;5.37;;;3.40;;
3683;SDS011;1858;48.716;9.648;2023-01-08T05:46:45;6.27;;;3.37;;
3683;SDS011;1858;48.716;9.648;2023-01-08T05:49:14;4.77;;;2.60;;
3683;SDS011;1858;48.716;9.648;2023-01-08T05:51:42;6.03;;;3.23;;
3683;SDS011;1858;48.716;9.648;2023-01-08T05:54:10;6.27;;;3.87;;
3683;SDS011;1858;48.716;9.648;2023-01-08T05:56:39;6.00;;;3.70;;
3683;SDS011;1858;48.716;9.648;2023-01-08T05:59:12;5.70;;;2.87;;
3683;SDS011;1858;48.716;9.648;2023-01-08T06:01:40;7.40;;;3.40;;
3683;SDS011;1858;48.716;9.648;2023-01-08T06:04:09;6.23;;;3.77;;
3683;SDS011;1858;48.716;9.648;2023-01-08T06:06:37;3.10;;;2.20;;
3683;SDS011;1858;48.716;9.648;2023-01-08T06:09:06;4.07;;;3.23;;
3683;SDS011;1858;48.716;9.648;2023-01-08T06:11:34;4.83;;;3.83;;
3683;SDS011;1858;48.716;9.648;2023-01-08T06:14:03;3.50;;;2.20;;
3683;SDS011;1858;48.716;9.648;2023-01-08T06:16:31;5.50;;;3.43;;
3683;SDS011;1858;48.716;9.648;2023-01-08T06:19:00;5.50;;;3.73;;
3683;SDS011;1858;48.716;9.648;2023-01-08T06:21:28;10.93;;;3.40;;
3683;SDS011;1858;48.716;9.648;2023-01-08T06:23:56;6.80;;;3.70;;
3683;SDS011;1858;48.716;9.648;2023-01-08T06:26:25;6.17;;;4.50;;
3683;SDS011;1858;48.716;9.648;2023-01-08T06:28:53;6.10;;;3.47;;
3683;SDS011;1858;48.716;9.648;2023-01-08T06:31:21;7.37;;;3.87;;
3683;SDS011;1858;48.716;9.648;2023-01-08T06:33:50;6.90;;;3.40;;
3683;SDS011;1858;48.716;9.648;2023-01-08T06:36:18;5.60;;;3.63;;
3683;SDS011;1858;48.716;9.648;2023-01-08T06:38:46;5.87;;;3.03;;
3683;SDS011;1858;48.716;9.648;2023-01-08T06:41:15;8.27;;;3.57;;
3683;SDS011;1858;48.716;9.648;2023-01-08T06:43:43;6.77;;;3.30;;
3683;SDS011;1858;48.716;9.648;2023-01-08T06:46:11;6.50;;;3.80;;
3683;SDS011;1858;48.716;9.648;2023-01-08T06:48:40;5.33;;;2.60;;
3683;SDS011;1858;48.716;9.648;2023-01-08T06:51:08;3.10;;;2.80;;
3683;SDS011;1858;48.716;9.648;2023-01-08T06:53:37;7.30;;;2.87;;
3683;SDS011;1858;48.716;9.648;2023-01-08T06:56:05;3.50;;;2.63;;
3683;SDS011;1858;48.716;9.648;2023-01-08T06:58:36;5.40;;;3.10;;
3683;SDS011;1858;48.716;9.648;2023-01-08T07:01:05;6.63;;;3.60;;
3683;SDS011;1858;48.716;9.648;2023-01-08T07:03:34;12.50;;;4.27;;
3683;SDS011;1858;48.716;9.648;2023-01-08T07:06:04;6.83;;;3.70;;
3683;SDS011;1858;48.716;9.648;2023-01-08T07:08:32;7.10;;;4.10;;
3683;SDS011;1858;48.716;9.648;2023-01-08T07:11:01;4.20;;;2.97;;
3683;SDS011;1858;48.716;9.648;2023-01-08T07:13:30;5.53;;;3.80;;
3683;SDS011;1858;48.716;9.648;2023-01-08T07:16:03;5.43;;;3.00;;
3683;SDS011;1858;48.716;9.648;2023-01-08T07:18:33;7.10;;;2.90;;
3683;SDS011;1858;48.716;9.648;2023-01-08T07:21:02;6.10;;;3.10;;
3683;SDS011;1858;48.716;9.648;2023-01-08T07:23:32;6.63;;;4.43;;
3683;SDS011;1858;48.716;9.648;2023-01-08T07:26:01;4.93;;;2.50;;
3683;SDS011;1858;48.716;9.648;2023-01-08T07:28:30;4.23;;;2.80;;
3683;SDS011;1858;48.716;9.648;2023-01-08T07:31:02;5.77;;;2.97;;
3683;SDS011;1858;48.716;9.648;2023-01-08T07:33:32;4.80;;;2.77;;
3683;SDS011;1858;48.716;9.648;2023-01-08T07:36:01;6.10;;;3.07;;
3683;SDS011;1858;48.716;9.648;2023-01-08T07:38:29;5.53;;;1.80;;
3683;SDS011;1858;48.716;9.648;2023-01-08T07:40:58;4.53;;;3.13;;
3683;SDS011;1858;48.716;9.648;2023-01-08T07:43:26;4.97;;;3.40;;
3683;SDS011;1858;48.716;9.648;2023-01-08T07:45:55;5.87;;;2.53;;
3683;SDS011;1858;48.716;9.648;2023-01-08T07:48:24;6.43;;;3.50;;
3683;SDS011;1858;48.716;9.648;2023-01-08T07:50:52;3.27;;;1.97;;
3683;SDS011;1858;48.716;9.648;2023-01-08T07:53:21;5.97;;;3.27;;
3683;SDS011;1858;48.716;9.648;2023-01-08T07:55:49;4.57;;;2.27;;
3683;SDS011;1858;48.716;9.648;2023-01-08T07:58:17;6.30;;;3.37;;
3683;SDS011;1858;48.716;9.648;2023-01-08T08:00:46;5.00;;;2.90;;
3683;SDS011;1858;48.716;9.648;2023-01-08T08:03:14;4.90;;;3.00;;
3683;SDS011;1858;48.716;9.648;2023-01-08T08:05:43;6.80;;;2.83;;
3683;SDS011;1858;48.716;9.648;2023-01-08T08:08:12;7.23;;;4.20;;
3683;SDS011;1858;48.716;9.648;2023-01-08T08:10:40;7.57;;;3.27;;
3683;SDS011;1858;48.716;9.648;2023-01-08T08:13:10;5.43;;;3.10;;
3683;SDS011;1858;48.716;9.648;2023-01-08T08:15:39;4.77;;;2.60;;
3683;SDS011;1858;48.716;9.648;2023-01-08T08:18:07;5.00;;;2.50;;
3683;SDS011;1858;48.716;9.648;2023-01-08T08:20:36;5.20;;;1.90;;
3683;SDS011;1858;48.716;9.648;2023-01-08T08:23:06;4.40;;;2.07;;
3683;SDS011;1858;48.716;9.648;2023-01-08T08:25:41;4.60;;;1.80;;
3683;SDS011;1858;48.716;9.648;2023-01-08T08:28:10;4.10;;;3.10;;
3683;SDS011;1858;48.716;9.648;2023-01-08T08:30:39;2.57;;;1.77;;
3683;SDS011;1858;48.716;9.648;2023-01-08T08:33:07;5.90;;;2.30;;
3683;SDS011;1858;48.716;9.648;2023-01-08T08:35:36;4.57;;;2.57;;
3683;SDS011;1858;48.716;9.648;2023-01-08T08:38:05;4.47;;;3.27;;
3683;SDS011;1858;48.716;9.648;2023-01-08T08:40:33;6.57;;;3.80;;
3683;SDS011;1858;48.716;9.648;2023-01-08T08:43:02;3.17;;;2.63;;
3683;SDS011;1858;48.716;9.648;2023-01-08T08:45:31;3.23;;;1.83;;
3683;SDS011;1858;48.716;9.648;2023-01-08T08:48:00;5.43;;;2.60;;
3683;SDS011;1858;48.716;9.648;2023-01-08T08:50:28;3.67;;;2.77;;
3683;SDS011;1858;48.716;9.648;2023-01-08T08:53:00;7.17;;;3.30;;
3683;SDS011;1858;48.716;9.648;2023-01-08T08:55:29;3.50;;;1.93;;
3683;SDS011;1858;48.716;9.648;2023-01-08T08:58:02;4.70;;;2.87;;
3683;SDS011;1858;48.716;9.648;2023-01-08T09:00:33;6.73;;;6.13;;
3683;SDS011;1858;48.716;9.648;2023-01-08T09:03:01;6.77;;;3.77;;
3683;SDS011;1858;48.716;9.648;2023-01-08T09:05:30;3.90;;;3.00;;
3683;SDS011;1858;48.716;9.648;2023-01-08T09:08:00;4.10;;;2.87;;
3683;SDS011;1858;48.716;9.648;2023-01-08T09:10:29;5.07;;;3.23;;
3683;SDS011;1858;48.716;9.648;2023-01-08T09:12:57;9.87;;;4.03;;
3683;SDS011;1858;48.716;9.648;2023-01-08T09:15:26;7.77;;;3.63;;
3683;SDS011;1858;48.716;9.648;2023-01-08T09:17:55;5.00;;;3.13;;
3683;SDS011;1858;48.716;9.648;2023-01-08T09:20:24;5.87;;;3.40;;
3683;SDS011;1858;48.716;9.648;2023-01-08T09:22:56;9.70;;;2.87;;
3683;SDS011;1858;48.716;9.648;2023-01-08T09:25:25;5.67;;;3.67;;
3683;SDS011;1858;48.716;9.648;2023-01-08T09:27:57;7.77;;;3.93;;
3683;SDS011;1858;48.716;9.648;2023-01-08T09:30:27;5.00;;;3.30;;
3683;SDS011;1858;48.716;9.648;2023-01-08T09:32:57;4.43;;;2.67;;
3683;SDS011;1858;48.716;9.648;2023-01-08T09:35:26;8.97;;;3.90;;
3683;SDS011;1858;48.716;9.648;2023-01-08T09:37:55;3.63;;;3.00;;
3683;SDS011;1858;48.716;9.648;2023-01-08T09:40:37;7.67;;;3.33;;
3683;SDS011;1858;48.716;9.648;2023-01-08T09:43:06;5.97;;;4.10;;
3683;SDS011;1858;48.716;9.648;2023-01-08T09:45:37;4.07;;;2.63;;
3683;SDS011;1858;48.716;9.648;2023-01-08T09:48:11;7.90;;;3.70;;
3683;SDS011;1858;48.716;9.648;2023-01-08T09:50:38;7.37;;;3.47;;
3683;SDS011;1858;48.716;9.648;2023-01-08T09:53:13;2.23;;;1.93;;
3683;SDS011;1858;48.716;9.648;2023-01-08T09:56:03;5.17;;;3.40;;
3683;SDS011;1858;48.716;9.648;2023-01-08T09:58:38;3.30;;;2.70;;
3683;SDS011;1858;48.716;9.648;2023-01-08T10:01:10;2.20;;;1.40;;
3683;SDS011;1858;48.716;9.648;2023-01-08T10:03:44;3.03;;;1.53;;
3683;SDS011;1858;48.716;9.648;2023-01-08T10:06:17;3.87;;;1.87;;
3683;SDS011;1858;48.716;9.648;2023-01-08T10:08:45;1.73;;;0.80;;
3683;SDS011;1858;48.716;9.648;2023-01-08T10:11:16;2.77;;;1.77;;
3683;SDS011;1858;48.716;9.648;2023-01-08T10:13:51;2.17;;;1.20;;
3683;SDS011;1858;48.716;9.648;2023-01-08T10:16:25;2.10;;;1.37;;
3683;SDS011;1858;48.716;9.648;2023-01-08T10:19:01;2.13;;;1.33;;
3683;SDS011;1858;48.716;9.648;2023-01-08T10:21:37;2.10;;;1.30;;
3683;SDS011;1858;48.716;9.648;2023-01-08T10:24:07;1.80;;;0.70;;
3683;SDS011;1858;48.716;9.648;2023-01-08T10:26:36;2.57;;;1.13;;
3683;SDS011;1858;48.716;9.648;2023-01-08T10:29:14;1.73;;;0.70;;
3683;SDS011;1858;48.716;9.648;2023-01-08T10:31:46;1.70;;;1.07;;
3683;SDS011;1858;48.716;9.648;2023-01-08T10:34:26;1.50;;;0.87;;
3683;SDS011;1858;48.716;9.648;2023-01-08T10:36:56;1.87;;;1.17;;
3683;SDS011;1858;48.716;9.648;2023-01-08T10:39:25;1.73;;;0.87;;
3683;SDS011;1858;48.716;9.648;2023-01-08T10:41:57;1.80;;;1.03;;
3683;SDS011;1858;48.716;9.648;2023-01-08T10:44:27;2.07;;;0.80;;
3683;SDS011;1858;48.716;9.648;2023-01-08T10:46:58;3.17;;;0.60;;
3683;SDS011;1858;48.716;9.648;2023-01-08T10:49:38;1.83;;;1.13;;
3683;SDS011;1858;48.716;9.648;2023-01-08T10:52:22;1.30;;;0.50;;
3683;SDS011;1858;48.716;9.648;2023-01-08T10:55:12;1.30;;;0.60;;
3683;SDS011;1858;48.716;9.648;2023-01-08T11:00:39;1.33;;;0.60;;
3683;SDS011;1858;48.716;9.648;2023-01-08T11:05:55;1.60;;;0.70;;
3683;SDS011;1858;48.716;9.648;2023-01-08T11:08:24;3.60;;;0.70;;
3683;SDS011;1858;48.716;9.648;2023-01-08T11:10:53;1.97;;;1.33;;
3683;SDS011;1858;48.716;9.648;2023-01-08T11:13:27;5.00;;;1.17;;
3683;SDS011;1858;48.716;9.648;2023-01-08T11:16:05;1.20;;;0.40;;
3683;SDS011;1858;48.716;9.648;2023-01-08T11:18:33;2.10;;;0.60;;
3683;SDS011;1858;48.716;9.648;2023-01-08T11:21:07;1.90;;;0.60;;
3683;SDS011;1858;48.716;9.648;2023-01-08T11:23:36;1.30;;;0.60;;
3683;SDS011;1858;48.716;9.648;2023-01-08T11:34:34;1.93;;;0.80;;
3683;SDS011;1858;48.716;9.648;2023-01-08T11:37:23;1.97;;;0.60;;
3683;SDS011;1858;48.716;9.648;2023-01-08T11:39:53;1.47;;;0.57;;
3683;SDS011;1858;48.716;9.648;2023-01-08T11:45:15;1.57;;;0.53;;
3683;SDS011;1858;48.716;9.648;2023-01-08T11:48:01;1.60;;;0.70;;
3683;SDS011;1858;48.716;9.648;2023-01-08T11:53:30;1.30;;;0.47;;
3683;SDS011;1858;48.716;9.648;2023-01-08T11:59:17;1.20;;;0.40;;
3683;SDS011;1858;48.716;9.648;2023-01-08T12:05:01;1.50;;;0.50;;
3683;SDS011;1858;48.716;9.648;2023-01-08T12:07:47;1.30;;;0.50;;
3683;SDS011;1858;48.716;9.648;2023-01-08T12:10:22;1.73;;;0.60;;
3683;SDS011;1858;48.716;9.648;2023-01-08T12:29:52;1.37;;;0.57;;
3683;SDS011;1858;48.716;9.648;2023-01-08T12:32:32;3.07;;;0.70;;
3683;SDS011;1858;48.716;9.648;2023-01-08T12:35:23;1.40;;;0.57;;
3683;SDS011;1858;48.716;9.648;2023-01-08T12:40:41;2.20;;;1.20;;
3683;SDS011;1858;48.716;9.648;2023-01-08T12:43:42;2.57;;;1.37;;
3683;SDS011;1858;48.716;9.648;2023-01-08T12:45:50;2.47;;;1.13;;
3683;SDS011;1858;48.716;9.648;2023-01-08T12:48:22;1.60;;;0.50;;
3683;SDS011;1858;48.716;9.648;2023-01-08T12:53:40;1.97;;;0.70;;
3683;SDS011;1858;48.716;9.648;2023-01-08T12:56:10;1.73;;;0.60;;
3683;SDS011;1858;48.716;9.648;2023-01-08T12:59:06;4.10;;;2.10;;
3683;SDS011;1858;48.716;9.648;2023-01-08T13:04:08;1.60;;;0.80;;
3683;SDS011;1858;48.716;9.648;2023-01-08T13:06:48;1.57;;;0.80;;
3683;SDS011;1858;48.716;9.648;2023-01-08T13:09:24;2.97;;;1.87;;
3683;SDS011;1858;48.716;9.648;2023-01-08T13:11:51;3.70;;;1.40;;
3683;SDS011;1858;48.716;9.648;2023-01-08T13:14:21;12.20;;;5.13;;
3683;SDS011;1858;48.716;9.648;2023-01-08T13:17:14;2.93;;;1.93;;
3683;SDS011;1858;48.716;9.648;2023-01-08T13:19:41;1.80;;;0.60;;
3683;SDS011;1858;48.716;9.648;2023-01-08T13:22:34;2.00;;;0.83;;
3683;SDS011;1858;48.716;9.648;2023-01-08T13:25:06;2.80;;;1.00;;
3683;SDS011;1858;48.716;9.648;2023-01-08T13:27:39;2.33;;;1.20;;
3683;SDS011;1858;48.716;9.648;2023-01-08T13:36:11;1.50;;;0.70;;
3683;SDS011;1858;48.716;9.648;2023-01-08T13:41:41;3.83;;;0.67;;
3683;SDS011;1858;48.716;9.648;2023-01-08T13:44:34;1.37;;;0.63;;
3683;SDS011;1858;48.716;9.648;2023-01-08T13:47:01;2.80;;;0.90;;
3683;SDS011;1858;48.716;9.648;2023-01-08T13:49:35;2.37;;;1.10;;
3683;SDS011;1858;48.716;9.648;2023-01-08T13:54:59;1.57;;;0.50;;
3683;SDS011;1858;48.716;9.648;2023-01-08T14:00:25;1.30;;;0.50;;
3683;SDS011;1858;48.716;9.648;2023-01-08T14:03:26;1.70;;;0.50;;
3683;SDS011;1858;48.716;9.648;2023-01-08T14:08:58;5.23;;;4.27;;
3683;SDS011;1858;48.716;9.648;2023-01-08T14:14:11;4.03;;;1.33;;
3683;SDS011;1858;48.716;9.648;2023-01-08T14:16:43;2.87;;;1.07;;
3683;SDS011;1858;48.716;9.648;2023-01-08T14:19:14;6.30;;;3.43;;
3683;SDS011;1858;48.716;9.648;2023-01-08T14:21:50;6.53;;;3.90;;
3683;SDS011;1858;48.716;9.648;2023-01-08T14:24:16;6.43;;;3.23;;
3683;SDS011;1858;48.716;9.648;2023-01-08T14:29:35;2.33;;;1.13;;
3683;SDS011;1858;48.716;9.648;2023-01-08T14:32:10;4.10;;;2.37;;
3683;SDS011;1858;48.716;9.648;2023-01-08T14:34:35;2.87;;;0.80;;
3683;SDS011;1858;48.716;9.648;2023-01-08T14:37:10;2.90;;;0.60;;
3683;SDS011;1858;48.716;9.648;2023-01-08T14:39:38;2.00;;;0.80;;
3683;SDS011;1858;48.716;9.648;2023-01-08T14:45:24;1.70;;;0.73;;
3683;SDS011;1858;48.716;9.648;2023-01-08T14:48:07;3.00;;;0.97;;
3683;SDS011;1858;48.716;9.648;2023-01-08T14:50:31;2.10;;;0.87;;
3683;SDS011;1858;48.716;9.648;2023-01-08T14:53:08;2.30;;;0.63;;
3683;SDS011;1858;48.716;9.648;2023-01-08T14:55:37;2.43;;;0.70;;
3683;SDS011;1858;48.716;9.648;2023-01-08T14:58:10;2.53;;;0.93;;
3683;SDS011;1858;48.716;9.648;2023-01-08T15:00:40;2.40;;;0.70;;
3683;SDS011;1858;48.716;9.648;2023-01-08T15:03:26;1.90;;;0.80;;
3683;SDS011;1858;48.716;9.648;2023-01-08T15:05:57;1.80;;;0.70;;
3683;SDS011;1858;48.716;9.648;2023-01-08T15:08:36;4.00;;;1.60;;
3683;SDS011;1858;48.716;9.648;2023-01-08T15:13:52;2.73;;;1.07;;
3683;SDS011;1858;48.716;9.648;2023-01-08T15:16:40;5.27;;;1.47;;
3683;SDS011;1858;48.716;9.648;2023-01-08T15:19:18;2.73;;;1.30;;
3683;SDS011;1858;48.716;9.648;2023-01-08T15:21:49;2.50;;;1.07;;
3683;SDS011;1858;48.716;9.648;2023-01-08T15:24:36;3.20;;;1.00;;
3683;SDS011;1858;48.716;9.648;2023-01-08T15:27:05;2.60;;;1.33;;
3683;SDS011;1858;48.716;9.648;2023-01-08T15:29:52;3.83;;;1.67;;
3683;SDS011;1858;48.716;9.648;2023-01-08T15:32:20;4.47;;;2.40;;
3683;SDS011;1858;48.716;9.648;2023-01-08T15:34:48;4.67;;;2.13;;
3683;SDS011;1858;48.716;9.648;2023-01-08T15:37:17;7.87;;;2.50;;
3683;SDS011;1858;48.716;9.648;2023-01-08T15:39:45;3.60;;;1.90;;
3683;SDS011;1858;48.716;9.648;2023-01-08T15:45:24;3.43;;;1.87;;
3683;SDS011;1858;48.716;9.648;2023-01-08T15:47:57;5.53;;;1.60;;
3683;SDS011;1858;48.716;9.648;2023-01-08T15:50:26;4.37;;;2.03;;
3683;SDS011;1858;48.716;9.648;2023-01-08T15:52:57;4.30;;;2.53;;
3683;SDS011;1858;48.716;9.648;2023-01-08T15:55:26;5.30;;;2.07;;
3683;SDS011;1858;48.716;9.648;2023-01-08T15:57:57;6.87;;;3.67;;
3683;SDS011;1858;48.716;9.648;2023-01-08T16:00:26;2.83;;;1.70;;
3683;SDS011;1858;48.716;9.648;2023-01-08T16:02:55;3.20;;;1.30;;
3683;SDS011;1858;48.716;9.648;2023-01-08T16:05:27;4.47;;;1.17;;
3683;SDS011;1858;48.716;9.648;2023-01-08T16:07:56;1.60;;;0.70;;
3683;SDS011;1858;48.716;9.648;2023-01-08T16:10:24;4.60;;;1.03;;
3683;SDS011;1858;48.716;9.648;2023-01-08T16:12:54;1.70;;;1.17;;
3683;SDS011;1858;48.716;9.648;2023-01-08T16:15:23;1.80;;;0.63;;
3683;SDS011;1858;48.716;9.648;2023-01-08T16:17:51;2.63;;;0.97;;
3683;SDS011;1858;48.716;9.648;2023-01-08T16:20:20;2.63;;;1.00;;
3683;SDS011;1858;48.716;9.648;2023-01-08T16:22:49;2.87;;;1.40;;
3683;SDS011;1858;48.716;9.648;2023-01-08T16:25:17;1.93;;;0.97;;
3683;SDS011;1858;48.716;9.648;2023-01-08T16:27:46;2.83;;;1.30;;
3683;SDS011;1858;48.716;9.648;2023-01-08T16:30:14;2.97;;;1.10;;
3683;SDS011;1858;48.716;9.648;2023-01-08T16:32:43;2.97;;;1.67;;
3683;SDS011;1858;48.716;9.648;2023-01-08T16:35:13;2.63;;;0.93;;
3683;SDS011;1858;48.716;9.648;2023-01-08T16:37:41;1.67;;;0.80;;
3683;SDS011;1858;48.716;9.648;2023-01-08T16:40:10;2.33;;;1.00;;
3683;SDS011;1858;48.716;9.648;2023-01-08T16:42:39;5.27;;;1.40;;
3683;SDS011;1858;48.716;9.648;2023-01-08T16:45:08;3.87;;;1.80;;
3683;SDS011;1858;48.716;9.648;2023-01-08T16:47:37;2.20;;;1.00;;
3683;SDS011;1858;48.716;9.648;2023-01-08T16:50:06;1.93;;;0.87;;
3683;SDS011;1858;48.716;9.648;2023-01-08T16:52:37;2.53;;;0.60;;
3683;SDS011;1858;48.716;9.648;2023-01-08T16:55:05;1.30;;;0.50;;
3683;SDS011;1858;48.716;9.648;2023-01-08T16:57:36;2.43;;;0.93;;
3683;SDS011;1858;48.716;9.648;2023-01-08T17:00:05;1.77;;;0.97;;
3683;SDS011;1858;48.716;9.648;2023-01-08T17:02:34;3.97;;;1.13;;
3683;SDS011;1858;48.716;9.648;2023-01-08T17:05:04;2.10;;;0.97;;
3683;SDS011;1858;48.716;9.648;2023-01-08T17:07:33;2.10;;;1.10;;
3683;SDS011;1858;48.716;9.648;2023-01-08T17:10:02;1.60;;;0.80;;
3683;SDS011;1858;48.716;9.648;2023-01-08T17:12:31;3.37;;;1.20;;
3683;SDS011;1858;48.716;9.648;2023-01-08T17:14:59;3.63;;;1.90;;
3683;SDS011;1858;48.716;9.648;2023-01-08T17:17:28;3.27;;;1.37;;
3683;SDS011;1858;48.716;9.648;2023-01-08T17:19:56;4.70;;;1.63;;
3683;SDS011;1858;48.716;9.648;2023-01-08T17:22:24;5.20;;;1.20;;
3683;SDS011;1858;48.716;9.648;2023-01-08T17:24:53;3.20;;;1.53;;